createdAt,value
2018-08-30T00:00:27.602Z,86.42
2018-08-30T00:05:22.420Z,86.21
2018-08-30T00:10:17.245Z,86.90
2018-08-30T00:15:12.087Z,87.09
2018-08-30T00:20:07.028Z,86.24
2018-08-30T00:25:01.853Z,86.89
2018-08-30T00:29:56.741Z,85.77
2018-08-30T00:34:51.573Z,85.38
2018-08-30T00:39:46.472Z,86.05
2018-08-30T00:44:41.426Z,86.63
2018-08-30T00:49:36.205Z,85.59
2018-08-30T00:54:31.045Z,84.54
2018-08-30T00:59:25.841Z,85.08
2018-08-30T01:04:20.736Z,84.34
2018-08-30T01:09:15.543Z,84.45
2018-08-30T01:14:10.371Z,84.49
2018-08-30T01:19:05.200Z,83.43
2018-08-30T01:24:00.134Z,85.04
2018-08-30T01:28:55.026Z,87.44
2018-08-30T01:33:49.998Z,88.19
2018-08-30T01:38:44.942Z,88.08
2018-08-30T01:43:39.794Z,89.11
2018-08-30T01:48:34.599Z,89.22
2018-08-30T01:53:29.477Z,89.18
2018-08-30T01:58:24.286Z,87.27
2018-08-30T02:03:19.142Z,86.16
2018-08-30T02:08:13.979Z,86.52
2018-08-30T02:13:08.922Z,85.48
2018-08-30T02:18:03.769Z,86.94
2018-08-30T02:22:58.603Z,85.20
2018-08-30T02:27:53.406Z,85.81
2018-08-30T02:32:48.362Z,85.55
2018-08-30T02:37:43.152Z,84.85
2018-08-30T02:42:37.961Z,85.11
2018-08-30T02:47:32.789Z,84.57
2018-08-30T02:52:28.492Z,84.78
2018-08-30T02:57:23.351Z,84.54
2018-08-30T03:02:18.149Z,84.07
2018-08-30T03:07:13.149Z,85.53
2018-08-30T03:12:08.166Z,84.90
2018-08-30T03:17:03.005Z,85.55
2018-08-30T03:21:57.890Z,86.48
2018-08-30T03:26:52.683Z,84.41
2018-08-30T03:31:47.454Z,85.05
2018-08-30T03:36:42.218Z,85.84
2018-08-30T03:41:37.126Z,83.68
2018-08-30T03:46:32.028Z,83.95
2018-08-30T03:51:26.822Z,86.31
2018-08-30T03:56:21.658Z,86.25
2018-08-30T04:01:16.465Z,85.29
2018-08-30T04:06:11.425Z,85.99
2018-08-30T04:11:06.234Z,84.59
2018-08-30T04:16:01.014Z,86.11
2018-08-30T04:20:55.823Z,85.12
2018-08-30T04:25:50.635Z,86.21
2018-08-30T04:30:45.462Z,86.80
2018-08-30T04:35:40.259Z,86.27
2018-08-30T04:40:35.161Z,87.06
2018-08-30T04:45:30.047Z,87.26
2018-08-30T04:50:24.876Z,86.10
2018-08-30T04:55:19.673Z,84.48
2018-08-30T05:00:14.578Z,85.40
2018-08-30T05:05:09.402Z,85.30
2018-08-30T05:10:04.329Z,85.35
2018-08-30T05:14:59.129Z,86.08
2018-08-30T05:19:53.914Z,86.51
2018-08-30T05:24:48.735Z,88.47
2018-08-30T05:29:43.647Z,89.73
2018-08-30T05:34:38.606Z,90.90
2018-08-30T05:39:33.630Z,91.44
2018-08-30T05:44:28.565Z,91.12
2018-08-30T05:49:23.455Z,90.92
2018-08-30T05:54:18.359Z,90.97
2018-08-30T05:59:13.270Z,92.20
2018-08-30T06:04:09.121Z,91.17
2018-08-30T06:09:05.153Z,91.83
2018-08-30T06:14:00.296Z,92.78
2018-08-30T06:18:55.314Z,92.86
2018-08-30T06:23:50.349Z,89.96
2018-08-30T06:28:45.375Z,90.85
2018-08-30T06:33:40.793Z,91.39
2018-08-30T06:38:35.765Z,89.38
2018-08-30T06:43:30.655Z,89.34
2018-08-30T06:48:25.644Z,91.27
2018-08-30T06:53:20.495Z,90.00
2018-08-30T06:58:15.428Z,89.39
2018-08-30T07:03:10.301Z,87.58
2018-08-30T07:08:05.283Z,89.11
2018-08-30T07:13:00.101Z,86.53
2018-08-30T07:17:54.947Z,85.06
2018-08-30T07:22:49.835Z,86.67
2018-08-30T07:27:44.721Z,87.30
2018-08-30T07:32:39.647Z,88.05
2018-08-30T07:37:35.090Z,88.08
2018-08-30T07:42:30.014Z,85.42
2018-08-30T07:47:24.850Z,84.68
2018-08-30T07:52:19.682Z,85.32
2018-08-30T07:57:14.524Z,83.40
2018-08-30T08:02:10.600Z,82.15
2018-08-30T08:07:05.706Z,83.10
2018-08-30T08:12:00.487Z,81.15
2018-08-30T08:16:55.278Z,79.66
2018-08-30T08:21:50.095Z,80.59
2018-08-30T08:26:44.876Z,81.43
2018-08-30T08:31:39.698Z,81.42
2018-08-30T08:36:34.490Z,80.57
2018-08-30T08:41:29.269Z,83.40
2018-08-30T08:46:24.145Z,81.84
2018-08-30T08:51:19.014Z,80.15
2018-08-30T08:56:13.845Z,76.81
2018-08-30T09:01:08.722Z,80.00
2018-08-30T09:06:03.626Z,80.61
2018-08-30T09:10:58.449Z,79.95
2018-08-30T09:15:53.283Z,79.53
2018-08-30T09:20:48.086Z,78.14
2018-08-30T09:25:49.883Z,78.97
2018-08-30T09:30:44.740Z,79.32
2018-08-30T09:35:39.595Z,79.69
2018-08-30T09:40:34.483Z,79.69
2018-08-30T09:45:29.378Z,78.70
2018-08-30T09:50:24.166Z,77.46
2018-08-30T09:55:19.021Z,78.50
2018-08-30T10:00:18.909Z,78.70
2018-08-30T10:05:13.791Z,81.25
2018-08-30T10:10:08.649Z,80.12
2018-08-30T10:15:03.512Z,78.21
2018-08-30T10:19:58.352Z,75.48
2018-08-30T10:24:53.278Z,76.13
2018-08-30T10:29:48.110Z,73.51
2018-08-30T10:34:42.961Z,74.65
2018-08-30T10:39:37.845Z,74.83
2018-08-30T10:44:32.712Z,72.87
2018-08-30T10:49:27.633Z,74.12
2018-08-30T10:54:22.387Z,71.35
2018-08-30T10:59:17.223Z,73.57
2018-08-30T11:04:12.184Z,72.70
2018-08-30T11:09:09.129Z,72.52
2018-08-30T11:14:03.907Z,68.98
2018-08-30T11:18:58.855Z,67.41
2018-08-30T11:23:53.752Z,65.13
2018-08-30T11:28:48.685Z,64.27
2018-08-30T11:33:43.475Z,64.16
2018-08-30T11:38:38.365Z,65.39
2018-08-30T11:43:33.170Z,65.57
2018-08-30T11:48:28.433Z,65.52
2018-08-30T11:53:23.319Z,69.45
2018-08-30T11:58:18.098Z,68.90
2018-08-30T12:03:12.985Z,67.32
2018-08-30T12:08:08.837Z,67.71
2018-08-30T12:13:03.595Z,67.50
2018-08-30T12:17:58.417Z,66.20
2018-08-30T12:22:53.282Z,66.49
2018-08-30T12:27:48.071Z,68.33
2018-08-30T12:32:42.951Z,68.20
2018-08-30T12:37:37.876Z,68.63
2018-08-30T12:42:32.761Z,65.53
2018-08-30T12:47:27.598Z,63.94
2018-08-30T12:52:22.974Z,66.92
2018-08-30T12:57:17.809Z,63.40
2018-08-30T13:02:12.735Z,63.00
2018-08-30T13:07:08.181Z,63.86
2018-08-30T13:12:03.201Z,61.20
2018-08-30T13:16:58.475Z,62.69
2018-08-30T13:21:53.569Z,65.50
2018-08-30T13:26:48.584Z,63.61
2018-08-30T13:31:44.183Z,64.21
2018-08-30T13:36:38.853Z,61.75
2018-08-30T13:41:33.957Z,60.98
2018-08-30T13:46:28.606Z,59.10
2018-08-30T13:51:23.628Z,57.30
2018-08-30T13:56:18.670Z,60.16
2018-08-30T14:01:13.724Z,59.51
2018-08-30T14:06:08.061Z,59.29
2018-08-30T14:11:03.137Z,60.01
2018-08-30T14:15:57.489Z,61.65
2018-08-30T14:20:52.448Z,60.79
2018-08-30T14:25:47.352Z,61.63
2018-08-30T14:30:42.230Z,62.32
2018-08-30T14:35:37.234Z,60.64
2018-08-30T14:40:32.228Z,62.54
2018-08-30T14:45:26.927Z,63.52
2018-08-30T14:50:21.880Z,62.41
2018-08-30T14:55:16.707Z,61.59
2018-08-30T15:00:11.548Z,61.55
2018-08-30T15:05:07.074Z,63.72
2018-08-30T15:10:01.862Z,61.03
2018-08-30T15:14:56.966Z,62.55
2018-08-30T15:19:51.859Z,62.20
2018-08-30T15:24:46.639Z,61.74
2018-08-30T15:29:41.514Z,63.29
2018-08-30T15:34:36.359Z,62.72
2018-08-30T15:39:31.268Z,62.30
2018-08-30T15:44:26.098Z,62.57
2018-08-30T15:49:20.937Z,65.19
2018-08-30T15:54:15.785Z,63.65
2018-08-30T15:59:10.687Z,63.45
2018-08-30T16:04:05.530Z,63.58
2018-08-30T16:09:00.378Z,65.23
2018-08-30T16:13:55.230Z,63.80
2018-08-30T16:18:50.133Z,65.72
2018-08-30T16:23:44.912Z,65.32
2018-08-30T16:28:39.730Z,65.44
2018-08-30T16:33:34.646Z,67.16
2018-08-30T16:38:29.535Z,67.56
2018-08-30T16:43:24.378Z,65.87
2018-08-30T16:48:19.226Z,66.59
2018-08-30T16:53:14.239Z,66.37
2018-08-30T16:58:08.885Z,65.76
2018-08-30T17:03:04.159Z,67.17
2018-08-30T17:07:59.571Z,68.42
2018-08-30T17:12:54.382Z,68.52
2018-08-30T17:17:49.257Z,67.72
2018-08-30T17:22:44.124Z,68.61
2018-08-30T17:27:39.016Z,69.60
2018-08-30T17:32:33.843Z,69.25
2018-08-30T17:37:28.681Z,68.92
2018-08-30T17:42:23.493Z,70.44
2018-08-30T17:47:18.288Z,71.25
2018-08-30T17:52:13.126Z,70.98
2018-08-30T17:57:07.970Z,71.26
2018-08-30T18:02:02.867Z,70.73
2018-08-30T18:06:57.812Z,71.01
2018-08-30T18:11:52.732Z,72.69
2018-08-30T18:16:47.631Z,72.03
2018-08-30T18:21:42.678Z,72.25
2018-08-30T18:26:37.489Z,72.63
2018-08-30T18:31:32.403Z,72.45
2018-08-30T18:36:27.230Z,72.22
2018-08-30T18:41:22.197Z,72.91
2018-08-30T18:46:17.182Z,73.27
2018-08-30T18:51:12.070Z,72.91
2018-08-30T18:56:07.093Z,72.43
2018-08-30T19:01:02.011Z,74.35
2018-08-30T19:05:57.307Z,73.85
2018-08-30T19:10:52.194Z,73.14
2018-08-30T19:15:51.965Z,74.15
2018-08-30T19:20:46.823Z,72.03
2018-08-30T19:25:41.642Z,74.24
2018-08-30T19:30:36.482Z,73.72
2018-08-30T19:35:36.522Z,74.32
2018-08-30T19:40:36.326Z,75.16
2018-08-30T19:45:31.546Z,76.52
2018-08-30T19:50:26.728Z,74.52
2018-08-30T19:55:21.588Z,75.90
2018-08-30T20:00:16.463Z,77.21
2018-08-30T20:05:11.355Z,76.53
2018-08-30T20:10:07.181Z,77.07
2018-08-30T20:15:02.050Z,78.16
2018-08-30T20:19:56.922Z,76.66
2018-08-30T20:24:51.767Z,78.05
2018-08-30T20:29:46.700Z,78.35
2018-08-30T20:34:41.483Z,77.91
2018-08-30T20:39:36.295Z,78.27
2018-08-30T20:44:31.112Z,77.77
2018-08-30T20:49:25.931Z,78.97
2018-08-30T20:54:20.842Z,79.87
2018-08-30T20:59:15.649Z,79.25
2018-08-30T21:04:10.508Z,79.52
2018-08-30T21:09:07.646Z,79.00
2018-08-30T21:14:02.552Z,80.18
2018-08-30T21:18:57.816Z,80.29
2018-08-30T21:23:52.673Z,78.80
2018-08-30T21:28:47.613Z,81.00
2018-08-30T21:33:42.465Z,80.90
2018-08-30T21:38:37.273Z,80.82
2018-08-30T21:43:32.189Z,80.57
2018-08-30T21:48:27.005Z,81.62
2018-08-30T21:53:21.868Z,82.10
2018-08-30T21:58:16.983Z,81.44
2018-08-30T22:03:11.808Z,82.13
2018-08-30T22:08:06.767Z,82.30
2018-08-30T22:13:01.614Z,81.33
2018-08-30T22:17:56.505Z,81.59
2018-08-30T22:22:51.301Z,82.68
2018-08-30T22:27:46.117Z,82.76
2018-08-30T22:32:40.927Z,83.77
2018-08-30T22:37:35.947Z,82.94
2018-08-30T22:42:30.818Z,82.14
2018-08-30T22:47:25.614Z,82.02
2018-08-30T22:52:20.434Z,81.52
2018-08-30T22:57:15.238Z,80.94
2018-08-30T23:02:10.082Z,81.79
2018-08-30T23:07:05.048Z,81.81
2018-08-30T23:11:59.901Z,81.92
2018-08-30T23:16:54.741Z,81.46
2018-08-30T23:21:49.566Z,82.09
2018-08-30T23:26:44.394Z,82.20
2018-08-30T23:31:39.229Z,82.00
2018-08-30T23:36:34.045Z,82.80
2018-08-30T23:41:28.841Z,81.66
2018-08-30T23:46:23.693Z,82.48
2018-08-30T23:51:18.661Z,80.87
2018-08-30T23:56:13.540Z,81.56
